Latest Weather Observations for Maria Island

IDT60901

Issued at 7:11 pm EDT Friday 18 January 2019 (issued every 10 minutes, with the page automatically refreshed every 10 minutes)

About weather observations | Map of Hobart area stations | Latest observations for Hobart area | Other Formats
Station Details ID: 092124 Name: MARIA ISLAND (POINT LESUEUR) Lat: -42.66 Lon: 148.02 Height: 28.0 m
Data from the previous 72 hours. | See also: Recent months at Maria Island
Date/Time
EDT
Temp
°C
App
Temp
°C
Dew
Point
°C
Rel
Hum
%
Delta-T
°C
Wind Press
QNH
hPa
Press
MSL
hPa
Rain since
9am
mm
Dir  Spd
km/h
Gust
km/h
Spd
kts
Gust
kts
18/07:00pm 16.1 14.7 14.6 91 0.9 ESE 15 20 8 11 1002.7 1002.6 0.0
18/06:30pm 16.4 14.8 14.9 91 0.9 SE 17 22 9 12 1002.8 1002.7 0.0
18/06:00pm 16.4 14.3 15.1 92 0.8 ESE 20 26 11 14 1002.8 1002.7 0.0
18/05:30pm 16.4 13.8 14.9 91 0.9 ESE 22 28 12 15 1002.7 1002.6 0.0
18/05:00pm 16.6 14.0 14.8 89 1.0 E 22 28 12 15 1002.9 1002.8 0.0
18/04:30pm 17.4 14.9 15.2 87 1.3 E 22 28 12 15 1003.0 1002.9 0.0
18/04:00pm 17.7 15.1 15.0 84 1.6 E 22 28 12 15 1002.9 1002.8 0.0
18/03:30pm 18.0 15.4 14.9 82 1.8 ESE 22 28 12 15 1003.3 1003.2 0.0
18/03:00pm 18.3 15.4 15.0 81 1.9 ESE 24 30 13 16 1003.6 1003.5 0.0
18/02:30pm 18.4 15.4 14.9 80 2.0 ESE 24 28 13 15 1003.8 1003.7 0.0
18/02:00pm 19.1 16.9 15.0 77 2.4 ESE 20 24 11 13 1003.9 1003.8 0.0
18/01:30pm 19.3 17.2 15.2 77 2.4 ESE 20 28 11 15 1004.7 1004.6 0.0
18/01:00pm 19.4 16.4 14.9 75 2.6 ESE 24 28 13 15 1005.1 1005.0 0.0
18/12:30pm 19.1 16.6 15.2 78 2.3 E 22 28 12 15 1005.6 1005.5 0.0
18/12:00pm 19.7 17.1 14.9 74 2.8 E 22 28 12 15 1005.6 1005.5 0.0
18/11:30am 20.4 19.4 15.6 74 2.9 ESE 15 20 8 11 1006.1 1006.0 0.0
18/11:00am 20.0 19.8 15.6 76 2.6 ESE 11 17 6 9 1005.7 1005.6 0.0
18/10:30am 18.9 18.0 14.8 77 2.4 S 13 15 7 8 1005.7 1005.6 0.0
18/10:00am 18.9 18.2 15.4 80 2.1 S 13 17 7 9 1006.0 1005.9 0.0
18/09:30am 18.3 17.2 15.2 82 1.8 S 15 19 8 10 1006.4 1006.3 0.0
18/09:00am 18.1 16.7 15.5 85 1.5 S 17 19 9 10 1006.3 1006.2 1.8
18/08:30am 17.8 17.1 15.4 86 1.4 S 13 17 7 9 1006.2 1006.1 1.8
18/08:00am 17.4 16.3 15.2 87 1.3 S 15 20 8 11 1005.9 1005.8 1.8
18/07:30am 17.6 16.7 14.9 84 1.6 SSE 13 17 7 9 1005.6 1005.5 1.8
18/07:00am 17.4 16.5 14.9 85 1.5 S 13 15 7 8 1005.4 1005.3 1.8
18/06:30am 17.3 16.0 14.9 86 1.4 S 15 17 8 9 1005.3 1005.2 1.8
18/06:00am 17.2 15.9 14.8 86 1.4 SSE 15 19 8 10 1004.7 1004.6 1.8
18/05:30am 17.3 17.6 15.1 87 1.3 SSE 7 11 4 6 1004.5 1004.4 1.8
18/05:00am 17.3 16.9 15.3 88 1.2 SSE 11 15 6 8 1004.6 1004.5 1.8
18/04:30am 17.3 18.7 15.3 88 1.2 SSE 2 4 1 2 1004.5 1004.4 1.8
18/04:00am 17.4 17.8 15.4 88 1.2 SSE 7 13 4 7 1004.3 1004.2 1.8
18/03:30am 17.4 17.2 15.6 89 1.1 SSE 11 15 6 8 1004.4 1004.3 1.8
18/03:00am 17.5 19.0 15.7 89 1.1 SE 2 6 1 3 1004.4 1004.3 1.8
18/02:30am 17.5 18.1 15.7 89 1.1 ESE 7 9 4 5 1004.6 1004.5 1.8
18/02:00am 17.6 16.3 15.8 89 1.1 S 17 20 9 11 1004.7 1004.6 1.8
18/01:30am 17.6 16.7 15.8 89 1.1 S 15 19 8 10 1005.0 1004.9 1.8
18/01:00am 17.8 16.2 16.0 89 1.1 S 19 22 10 12 1005.1 1005.0 1.8
18/12:30am 17.8 15.5 15.8 88 1.2 S 22 26 12 14 1005.1 1005.0 1.8
18/12:00am 17.9 15.3 15.9 88 1.2 S 24 28 13 15 1005.2 1005.1 1.8
 
Date/Time
EDT
Temp
°C
App
Temp
°C
Dew
Point
°C
Rel
Hum
%
Delta-T
°C
Wind Press
QNH
hPa
Press
MSL
hPa
Rain since
9am
mm
Dir  Spd
km/h
Gust
km/h
Spd
kts
Gust
kts
17/11:30pm 18.2 15.3 16.0 87 1.3 S 26 30 14 16 1005.3 1005.2 1.8
17/11:00pm 18.5 15.3 16.3 87 1.3 S 28 32 15 17 1005.5 1005.4 1.8
17/10:30pm 19.1 17.2 16.7 86 1.4 S 22 26 12 14 1005.6 1005.5 1.8
17/10:00pm 19.6 19.1 17.0 85 1.6 SSE 15 20 8 11 1005.7 1005.6 1.8
17/09:30pm 19.9 19.9 17.3 85 1.6 S 13 15 7 8 1005.7 1005.6 1.8
17/09:00pm 19.8 20.0 17.6 87 1.4 SSW 13 17 7 9 1005.2 1005.1 1.8
17/08:30pm 19.7 19.9 17.7 88 1.2 SSW 13 15 7 8 1004.9 1004.8 1.8
17/08:00pm 19.9 20.4 17.5 86 1.5 SSW 11 15 6 8 1005.0 1004.9 1.8
17/07:30pm 21.3 22.5 17.3 78 2.5 S 7 9 4 5 1004.7 1004.6 1.8
17/07:00pm 21.7 23.2 17.5 77 2.6 WSW 6 7 3 4 1004.4 1004.3 1.8
17/06:30pm 22.1 23.5 17.9 77 2.6 NW 7 9 4 5 1004.1 1004.0 1.8
17/06:00pm 21.2 22.6 17.8 81 2.1 NNE 7 9 4 5 1004.2 1004.1 1.8
17/05:30pm 21.4 23.0 17.8 80 2.2 WNW 6 9 3 5 1004.2 1004.1 1.8
17/05:00pm 21.4 21.7 16.1 72 3.2 NW 9 15 5 8 1004.3 1004.2 0.6
17/04:30pm 22.4 22.4 17.1 72 3.3 NW 13 17 7 9 1004.7 1004.6 0.6
17/04:00pm 21.3 20.1 16.0 72 3.2 NW 17 19 9 10 1005.0 1004.9 0.6
17/03:30pm 22.5 19.6 16.1 67 3.9 N 26 30 14 16 1004.9 1004.8 0.6
17/03:00pm 22.9 20.7 16.9 69 3.7 N 24 30 13 16 1005.1 1005.0 0.6
17/02:30pm 22.2 22.2 17.1 73 3.1 NNW 13 19 7 10 1005.5 1005.4 0.6
17/02:00pm 20.4 21.1 16.2 77 2.5 SW 7 9 4 5 1005.8 1005.7 0.6
17/01:30pm 20.6 22.5 16.6 78 2.4 NNW 2 6 1 3 1006.0 1005.9 0.6
17/01:00pm 19.5 21.0 16.7 84 1.7 SW 4 6 2 3 1006.6 1006.5 0.6
17/12:30pm 18.8 20.2 16.4 86 1.4 S 4 6 2 3 1006.8 1006.7 0.6
17/12:00pm 18.4 19.1 16.2 87 1.3 SSW 7 9 4 5 1007.1 1007.0 0.6
17/11:30am 18.1 18.9 15.9 87 1.3 S 6 7 3 4 1007.2 1007.1 0.6
17/11:00am 17.9 18.4 15.5 86 1.4 S 7 9 4 5 1007.8 1007.7 0.4
17/10:30am 18.5 19.0 15.6 83 1.7 SW 7 11 4 6 1008.5 1008.4 0.2
17/10:00am 18.6 20.1 15.8 84 1.7 SSW 2 9 1 5 1008.7 1008.6 0.0
17/09:30am 18.3 19.0 15.6 84 1.6 SSW 6 9 3 5 1009.2 1009.1 0.0
17/09:00am 18.7 18.9 14.6 77 2.4 W 7 11 4 6 1009.2 1009.1 0.0
17/08:30am 19.4 21.0 14.9 75 2.6 CALM 0 0 0 0 1009.2 1009.1 0.0
17/08:00am 18.5 20.1 14.8 79 2.2 CALM 0 0 0 0 1009.2 1009.1 0.0
17/07:30am 18.4 18.7 15.1 81 1.9 NNE 7 9 4 5 1008.7 1008.6 0.0
17/07:00am 18.4 18.0 15.3 82 1.8 N 11 15 6 8 1008.2 1008.1 0.0
17/06:30am 17.9 18.2 15.0 83 1.7 N 7 11 4 6 1008.4 1008.3 0.0
17/06:00am 17.5 18.5 14.4 82 1.8 ESE 2 4 1 2 1008.3 1008.2 0.0
17/05:30am 17.6 16.3 14.7 83 1.7 S 15 20 8 11 1008.2 1008.1 0.0
17/05:00am 18.1 18.4 15.0 82 1.8 W 7 9 4 5 1008.4 1008.3 0.0
17/04:30am 18.5 18.0 15.0 80 2.0 N 11 13 6 7 1007.8 1007.7 0.0
17/04:00am 18.5 18.0 15.0 80 2.0 N 11 15 6 8 1006.9 1006.8 0.0
17/03:30am 18.4 18.5 15.5 83 1.7 N 9 15 5 8 1007.4 1007.3 0.0
17/03:00am 18.0 16.2 15.4 85 1.5 N 19 22 10 12 1007.9 1007.8 0.0
17/02:30am 17.9 14.5 15.7 87 1.3 N 28 33 15 18 1007.5 1007.4 0.0
17/02:00am 17.9 14.0 15.5 86 1.4 N 30 35 16 19 1008.2 1008.1 0.0
17/01:30am 18.0 13.7 15.3 84 1.6 N 32 39 17 21 1008.6 1008.5 0.0
17/01:00am 18.1 15.7 14.4 79 2.1 NNE 20 26 11 14 1008.6 1008.5 0.0
17/12:30am 17.8 15.2 13.7 77 2.3 NNE 20 24 11 13 1009.2 1009.1 0.0
17/12:00am 17.7 14.6 13.4 76 2.4 NNE 22 30 12 16 1009.3 1009.2 0.0
 
Date/Time
EDT
Temp
°C
App
Temp
°C
Dew
Point
°C
Rel
Hum
%
Delta-T
°C
Wind Press
QNH
hPa
Press
MSL
hPa
Rain since
9am
mm
Dir  Spd
km/h
Gust
km/h
Spd
kts
Gust
kts
16/11:30pm 17.6 14.3 12.9 74 2.6 NNE 22 32 12 17 1010.0 1009.9 0.0
16/11:00pm 17.4 13.3 12.7 74 2.6 NNE 26 35 14 19 1010.2 1010.1 0.0
16/10:30pm 17.4 14.1 12.7 74 2.6 NNE 22 32 12 17 1011.0 1010.9 0.0
16/10:00pm 17.2 15.8 12.3 73 2.7 NNE 11 20 6 11 1010.9 1010.8 0.0
16/09:30pm 17.2 15.1 12.3 73 2.7 NNE 15 19 8 10 1010.6 1010.5 0.0
16/09:00pm 17.2 15.9 12.5 74 2.6 NNE 11 17 6 9 1010.9 1010.8 0.0
16/08:30pm 16.9 15.5 12.2 74 2.6 E 11 17 6 9 1011.0 1010.9 0.0
16/08:00pm 16.9 14.7 12.0 73 2.7 NE 15 24 8 13 1011.5 1011.4 0.0
16/07:30pm 17.3 15.5 12.2 72 2.8 NNE 13 17 7 9 1012.3 1012.2 0.0
16/07:00pm 17.4 15.6 12.1 71 2.9 NNE 13 17 7 9 1011.7 1011.6 0.0
16/06:30pm 17.5 16.8 12.0 70 3.0 NE 7 11 4 6 1011.9 1011.8 0.0
16/06:00pm 17.4 15.1 11.9 70 3.0 ENE 15 20 8 11 1011.9 1011.8 0.0
16/05:30pm 17.4 15.1 11.7 69 3.1 E 15 19 8 10 1012.1 1012.0 0.0
16/05:00pm 17.6 14.8 11.4 67 3.4 E 17 22 9 12 1011.8 1011.7 0.0
16/04:30pm 17.5 14.6 11.1 66 3.5 ESE 17 24 9 13 1011.6 1011.5 0.0
16/04:00pm 17.5 14.3 11.1 66 3.5 ESE 19 24 10 13 1011.7 1011.6 0.0
16/03:30pm 17.7 14.3 11.3 66 3.5 ESE 20 26 11 14 1011.5 1011.4 0.0
16/03:00pm 18.0 14.6 11.3 65 3.6 E 20 26 11 14 1011.5 1011.4 0.0
16/02:30pm 17.9 14.7 11.2 65 3.6 ESE 19 22 10 12 1011.7 1011.6 0.0
16/02:00pm 18.1 14.9 11.2 64 3.8 ESE 19 22 10 12 1011.5 1011.4 0.0
16/01:30pm 18.2 15.4 11.3 64 3.8 ESE 17 24 9 13 1011.6 1011.5 0.0
16/01:00pm 19.3 17.3 12.6 65 3.8 SE 15 20 8 11 1011.6 1011.5 0.0
16/12:30pm 18.9 16.4 12.2 65 3.7 SE 17 22 9 12 1011.9 1011.8 0.0
16/12:00pm 18.1 15.4 11.7 66 3.5 SE 17 22 9 12 1011.7 1011.6 0.0
16/11:30am 18.1 14.9 11.4 65 3.7 SSE 19 24 10 13 1011.6 1011.5 0.0
16/11:00am 18.1 15.3 11.4 65 3.7 SSE 17 20 9 11 1011.3 1011.2 0.0
16/10:30am 17.9 14.8 11.5 66 3.5 SSE 19 22 10 12 1011.1 1011.0 0.0
16/10:00am 17.7 15.3 11.5 67 3.4 SSE 15 19 8 10 1011.0 1010.9 0.0
16/09:30am 17.6 15.3 11.9 69 3.1 SSE 15 19 8 10 1010.9 1010.8 0.0
16/09:00am 17.2 15.4 12.1 72 2.8 S 13 17 7 9 1010.7 1010.6 0.0
16/08:30am 16.8 14.5 11.9 73 2.7 S 15 19 8 10 1010.3 1010.2 0.0
16/08:00am 16.6 13.4 12.0 74 2.5 SSW 20 24 11 13 1010.0 1009.9 0.0
16/07:30am 16.5 13.4 12.3 76 2.3 S 20 26 11 14 1009.5 1009.4 0.0
16/07:00am 16.4 12.7 12.8 79 2.0 S 24 28 13 15 1009.1 1009.0 0.0
16/06:30am 16.6 13.1 13.3 81 1.9 S 24 26 13 14 1008.8 1008.7 0.0
16/06:00am 16.8 13.9 14.1 84 1.5 SSW 22 24 12 13 1008.5 1008.4 0.0
16/05:30am 16.9 13.4 14.4 85 1.4 SSW 26 30 14 16 1008.3 1008.2 0.0
16/05:00am 17.2 14.2 14.8 86 1.4 SSW 24 28 13 15 1008.1 1008.0 0.0
16/04:30am 17.6 15.6 15.4 87 1.3 SSW 20 24 11 13 1007.9 1007.8 0.0
16/04:00am 17.5 16.3 15.1 86 1.4 S 15 17 8 9 1007.7 1007.6 0.0
16/03:30am 17.8 15.3 15.2 85 1.5 SSW 22 24 12 13 1007.5 1007.4 0.0
16/03:00am 17.7 17.5 14.8 83 1.7 SSE 9 15 5 8 1007.5 1007.4 0.0
16/02:30am 18.0 16.6 14.5 80 2.0 SE 15 20 8 11 1007.3 1007.2 0.0
16/02:00am 18.4 16.4 14.9 80 2.0 S 19 24 10 13 1007.2 1007.1 0.0
16/01:30am 18.5 17.3 15.0 80 2.0 SSE 15 17 8 9 1007.2 1007.1 0.0
16/01:00am 18.7 17.4 14.8 78 2.3 SSE 15 17 8 9 1006.8 1006.7 0.0
16/12:30am 18.9 17.2 14.8 77 2.4 S 17 20 9 11 1006.9 1006.8 0.0
16/12:00am 18.9 17.1 14.4 75 2.6 S 17 19 9 10 1006.6 1006.5 0.0
 
Date/Time
EDT
Temp
°C
App
Temp
°C
Dew
Point
°C
Rel
Hum
%
Delta-T
°C
Wind Press
QNH
hPa
Press
MSL
hPa
Rain since
9am
mm
Dir  Spd
km/h
Gust
km/h
Spd
kts
Gust
kts
15/11:30pm 19.0 16.9 13.6 71 3.1 S 17 19 9 10 1006.3 1006.2 0.0
15/11:00pm 18.8 17.6 14.1 74 2.7 SSE 13 24 7 13 1006.0 1005.9 0.0
15/10:30pm 18.9 17.6 13.7 72 3.0 SE 13 17 7 9 1005.7 1005.6 0.0
15/10:00pm 18.7 17.9 15.2 80 2.1 SSW 13 19 7 10 1005.9 1005.8 0.0
15/09:30pm 18.9 19.3 15.2 79 2.2 E 7 13 4 7 1004.8 1004.7 0.0
15/09:16pm 18.8 17.3 15.3 80 2.1 S 17 20 9 11 1004.6 1004.5 0.0
15/09:00pm 19.0 19.3 15.1 78 2.3 ESE 7 11 4 6 1006.7 1006.6 0.0
15/08:30pm 19.2 16.2 13.8 71 3.1 ESE 22 30 12 16 1004.8 1004.7 0.0
15/08:00pm 19.9 18.4 15.3 75 2.7 ESE 17 22 9 12 1005.5 1005.4 0.0
15/07:30pm 19.9 17.1 17.3 85 1.6 S 28 39 15 21 1005.7 1005.6 0.0

Latest Capital City Observations: Canberra | Sydney | Melbourne | Brisbane | Adelaide | Perth | Hobart | Darwin

Other Formats:

Comma delimited format used in spreadsheet applications
http://www.bom.gov.au/fwo/IDT60901/IDT60901.95988.axf

JavaScript Object Notation format (JSON) in row-major order
http://www.bom.gov.au/fwo/IDT60901/IDT60901.95988.json